sensor_id;sensor_type;location;lat;lon;timestamp;P1;durP1;ratioP1;P2;durP2;ratioP2
32826;SDS011;51059;42.058;27.986;2024-02-26T00:01:53;21.20;;;17.80;;
32826;SDS011;51059;42.058;27.986;2024-02-26T00:04:20;21.97;;;18.50;;
32826;SDS011;51059;42.058;27.986;2024-02-26T00:06:47;25.07;;;19.27;;
32826;SDS011;51059;42.058;27.986;2024-02-26T00:09:16;28.57;;;19.70;;
32826;SDS011;51059;42.058;27.986;2024-02-26T00:11:42;20.87;;;18.53;;
32826;SDS011;51059;42.058;27.986;2024-02-26T00:14:07;23.37;;;20.47;;
32826;SDS011;51059;42.058;27.986;2024-02-26T00:16:35;28.27;;;19.13;;
32826;SDS011;51059;42.058;27.986;2024-02-26T00:19:01;20.97;;;18.77;;
32826;SDS011;51059;42.058;27.986;2024-02-26T00:21:27;23.60;;;20.10;;
32826;SDS011;51059;42.058;27.986;2024-02-26T00:23:53;22.47;;;18.90;;
32826;SDS011;51059;42.058;27.986;2024-02-26T00:26:19;21.93;;;18.77;;
32826;SDS011;51059;42.058;27.986;2024-02-26T00:28:45;20.77;;;17.83;;
32826;SDS011;51059;42.058;27.986;2024-02-26T00:31:10;22.33;;;17.33;;
32826;SDS011;51059;42.058;27.986;2024-02-26T00:33:36;25.63;;;20.43;;
32826;SDS011;51059;42.058;27.986;2024-02-26T00:36:02;22.67;;;18.90;;
32826;SDS011;51059;42.058;27.986;2024-02-26T00:38:28;26.13;;;23.37;;
32826;SDS011;51059;42.058;27.986;2024-02-26T00:40:54;25.83;;;20.80;;
32826;SDS011;51059;42.058;27.986;2024-02-26T00:43:21;23.50;;;20.93;;
32826;SDS011;51059;42.058;27.986;2024-02-26T00:45:47;21.83;;;19.53;;
32826;SDS011;51059;42.058;27.986;2024-02-26T00:48:13;22.27;;;18.17;;
32826;SDS011;51059;42.058;27.986;2024-02-26T00:50:39;24.73;;;20.23;;
32826;SDS011;51059;42.058;27.986;2024-02-26T00:53:05;30.73;;;24.40;;
32826;SDS011;51059;42.058;27.986;2024-02-26T00:55:31;33.53;;;30.00;;
32826;SDS011;51059;42.058;27.986;2024-02-26T00:57:58;37.53;;;33.53;;
32826;SDS011;51059;42.058;27.986;2024-02-26T01:00:24;40.47;;;36.20;;
32826;SDS011;51059;42.058;27.986;2024-02-26T01:02:50;38.40;;;30.80;;
32826;SDS011;51059;42.058;27.986;2024-02-26T01:05:16;29.53;;;25.17;;
32826;SDS011;51059;42.058;27.986;2024-02-26T01:07:42;29.93;;;26.73;;
32826;SDS011;51059;42.058;27.986;2024-02-26T01:10:08;29.87;;;25.00;;
32826;SDS011;51059;42.058;27.986;2024-02-26T01:12:36;27.33;;;23.00;;
32826;SDS011;51059;42.058;27.986;2024-02-26T01:15:02;22.53;;;20.23;;
32826;SDS011;51059;42.058;27.986;2024-02-26T01:17:28;22.43;;;18.57;;
32826;SDS011;51059;42.058;27.986;2024-02-26T01:19:54;21.30;;;17.03;;
32826;SDS011;51059;42.058;27.986;2024-02-26T01:22:20;18.33;;;16.27;;
32826;SDS011;51059;42.058;27.986;2024-02-26T01:24:47;23.17;;;18.87;;
32826;SDS011;51059;42.058;27.986;2024-02-26T01:27:13;23.17;;;20.57;;
32826;SDS011;51059;42.058;27.986;2024-02-26T01:29:41;23.77;;;20.03;;
32826;SDS011;51059;42.058;27.986;2024-02-26T01:32:07;20.60;;;18.33;;
32826;SDS011;51059;42.058;27.986;2024-02-26T01:34:33;17.77;;;15.53;;
32826;SDS011;51059;42.058;27.986;2024-02-26T01:37:00;16.33;;;14.43;;
32826;SDS011;51059;42.058;27.986;2024-02-26T01:39:27;17.70;;;13.80;;
32826;SDS011;51059;42.058;27.986;2024-02-26T01:41:55;17.77;;;13.27;;
32826;SDS011;51059;42.058;27.986;2024-02-26T01:44:21;18.10;;;13.23;;
32826;SDS011;51059;42.058;27.986;2024-02-26T01:46:48;14.87;;;13.00;;
32826;SDS011;51059;42.058;27.986;2024-02-26T01:49:14;17.77;;;13.23;;
32826;SDS011;51059;42.058;27.986;2024-02-26T01:51:41;14.17;;;12.67;;
32826;SDS011;51059;42.058;27.986;2024-02-26T01:54:08;14.73;;;12.67;;
32826;SDS011;51059;42.058;27.986;2024-02-26T01:56:35;14.83;;;13.33;;
32826;SDS011;51059;42.058;27.986;2024-02-26T01:59:03;14.10;;;12.67;;
32826;SDS011;51059;42.058;27.986;2024-02-26T02:01:31;15.90;;;13.43;;
32826;SDS011;51059;42.058;27.986;2024-02-26T02:03:58;16.73;;;13.20;;
32826;SDS011;51059;42.058;27.986;2024-02-26T02:06:26;16.23;;;12.33;;
32826;SDS011;51059;42.058;27.986;2024-02-26T02:08:56;13.03;;;11.73;;
32826;SDS011;51059;42.058;27.986;2024-02-26T02:11:22;16.33;;;12.37;;
32826;SDS011;51059;42.058;27.986;2024-02-26T02:13:47;16.17;;;14.00;;
32826;SDS011;51059;42.058;27.986;2024-02-26T02:16:13;18.50;;;14.60;;
32826;SDS011;51059;42.058;27.986;2024-02-26T02:18:39;15.03;;;13.47;;
32826;SDS011;51059;42.058;27.986;2024-02-26T02:21:05;17.23;;;13.33;;
32826;SDS011;51059;42.058;27.986;2024-02-26T02:23:31;18.17;;;14.40;;
32826;SDS011;51059;42.058;27.986;2024-02-26T02:25:57;16.03;;;14.33;;
32826;SDS011;51059;42.058;27.986;2024-02-26T02:28:25;17.10;;;14.17;;
32826;SDS011;51059;42.058;27.986;2024-02-26T02:30:54;15.53;;;13.47;;
32826;SDS011;51059;42.058;27.986;2024-02-26T02:33:21;16.83;;;14.10;;
32826;SDS011;51059;42.058;27.986;2024-02-26T02:35:48;18.80;;;13.43;;
32826;SDS011;51059;42.058;27.986;2024-02-26T02:38:16;17.73;;;13.50;;
32826;SDS011;51059;42.058;27.986;2024-02-26T02:40:42;19.77;;;13.80;;
32826;SDS011;51059;42.058;27.986;2024-02-26T02:43:08;15.23;;;13.20;;
32826;SDS011;51059;42.058;27.986;2024-02-26T02:45:35;16.00;;;12.93;;
32826;SDS011;51059;42.058;27.986;2024-02-26T02:48:01;16.03;;;12.87;;
32826;SDS011;51059;42.058;27.986;2024-02-26T02:50:27;14.60;;;12.73;;
32826;SDS011;51059;42.058;27.986;2024-02-26T02:52:54;18.13;;;12.17;;
32826;SDS011;51059;42.058;27.986;2024-02-26T02:55:21;16.80;;;11.90;;
32826;SDS011;51059;42.058;27.986;2024-02-26T02:57:47;13.80;;;12.50;;
32826;SDS011;51059;42.058;27.986;2024-02-26T03:00:12;17.00;;;12.23;;
32826;SDS011;51059;42.058;27.986;2024-02-26T03:02:38;13.67;;;11.57;;
32826;SDS011;51059;42.058;27.986;2024-02-26T03:05:04;13.93;;;11.93;;
32826;SDS011;51059;42.058;27.986;2024-02-26T03:07:30;13.73;;;11.33;;
32826;SDS011;51059;42.058;27.986;2024-02-26T03:09:56;12.73;;;11.03;;
32826;SDS011;51059;42.058;27.986;2024-02-26T03:12:23;11.30;;;10.10;;
32826;SDS011;51059;42.058;27.986;2024-02-26T03:14:49;13.13;;;10.30;;
32826;SDS011;51059;42.058;27.986;2024-02-26T03:17:15;17.37;;;9.90;;
32826;SDS011;51059;42.058;27.986;2024-02-26T03:19:41;15.80;;;9.90;;
32826;SDS011;51059;42.058;27.986;2024-02-26T03:22:07;12.23;;;9.50;;
32826;SDS011;51059;42.058;27.986;2024-02-26T03:24:33;12.10;;;9.63;;
32826;SDS011;51059;42.058;27.986;2024-02-26T03:26:59;13.07;;;9.73;;
32826;SDS011;51059;42.058;27.986;2024-02-26T03:29:25;12.20;;;10.10;;
32826;SDS011;51059;42.058;27.986;2024-02-26T03:31:51;12.60;;;10.23;;
32826;SDS011;51059;42.058;27.986;2024-02-26T03:34:16;17.23;;;11.60;;
32826;SDS011;51059;42.058;27.986;2024-02-26T03:36:43;15.67;;;12.17;;
32826;SDS011;51059;42.058;27.986;2024-02-26T03:39:09;14.50;;;11.97;;
32826;SDS011;51059;42.058;27.986;2024-02-26T03:41:36;13.20;;;11.80;;
32826;SDS011;51059;42.058;27.986;2024-02-26T03:44:02;14.83;;;12.20;;
32826;SDS011;51059;42.058;27.986;2024-02-26T03:46:28;15.63;;;11.53;;
32826;SDS011;51059;42.058;27.986;2024-02-26T03:48:54;13.33;;;11.50;;
32826;SDS011;51059;42.058;27.986;2024-02-26T03:51:20;13.80;;;11.27;;
32826;SDS011;51059;42.058;27.986;2024-02-26T03:53:46;12.57;;;10.93;;
32826;SDS011;51059;42.058;27.986;2024-02-26T03:56:13;11.50;;;10.23;;
32826;SDS011;51059;42.058;27.986;2024-02-26T03:58:39;12.20;;;10.90;;
32826;SDS011;51059;42.058;27.986;2024-02-26T04:01:07;12.13;;;10.93;;
32826;SDS011;51059;42.058;27.986;2024-02-26T04:03:33;15.17;;;11.80;;
32826;SDS011;51059;42.058;27.986;2024-02-26T04:05:59;12.03;;;10.83;;
32826;SDS011;51059;42.058;27.986;2024-02-26T04:08:25;15.30;;;12.30;;
32826;SDS011;51059;42.058;27.986;2024-02-26T04:10:51;16.47;;;12.30;;
32826;SDS011;51059;42.058;27.986;2024-02-26T04:13:17;11.93;;;10.57;;
32826;SDS011;51059;42.058;27.986;2024-02-26T04:15:43;12.53;;;10.23;;
32826;SDS011;51059;42.058;27.986;2024-02-26T04:18:09;14.20;;;10.47;;
32826;SDS011;51059;42.058;27.986;2024-02-26T04:20:36;13.00;;;9.47;;
32826;SDS011;51059;42.058;27.986;2024-02-26T04:23:02;14.40;;;8.80;;
32826;SDS011;51059;42.058;27.986;2024-02-26T04:25:29;9.73;;;8.73;;
32826;SDS011;51059;42.058;27.986;2024-02-26T04:27:54;13.03;;;9.00;;
32826;SDS011;51059;42.058;27.986;2024-02-26T04:30:21;11.77;;;8.83;;
32826;SDS011;51059;42.058;27.986;2024-02-26T04:32:46;12.83;;;10.70;;
32826;SDS011;51059;42.058;27.986;2024-02-26T04:35:12;13.20;;;11.60;;
32826;SDS011;51059;42.058;27.986;2024-02-26T04:37:38;13.33;;;11.70;;
32826;SDS011;51059;42.058;27.986;2024-02-26T04:40:04;13.67;;;10.40;;
32826;SDS011;51059;42.058;27.986;2024-02-26T04:42:30;15.80;;;10.50;;
32826;SDS011;51059;42.058;27.986;2024-02-26T04:44:58;14.27;;;11.57;;
32826;SDS011;51059;42.058;27.986;2024-02-26T04:47:23;19.70;;;14.33;;
32826;SDS011;51059;42.058;27.986;2024-02-26T04:49:50;19.23;;;16.07;;
32826;SDS011;51059;42.058;27.986;2024-02-26T04:52:16;21.40;;;15.93;;
32826;SDS011;51059;42.058;27.986;2024-02-26T04:54:42;17.77;;;15.87;;
32826;SDS011;51059;42.058;27.986;2024-02-26T04:57:08;16.60;;;14.73;;
32826;SDS011;51059;42.058;27.986;2024-02-26T04:59:39;16.93;;;13.90;;
32826;SDS011;51059;42.058;27.986;2024-02-26T05:02:07;17.73;;;14.20;;
32826;SDS011;51059;42.058;27.986;2024-02-26T05:04:33;16.50;;;14.80;;
32826;SDS011;51059;42.058;27.986;2024-02-26T05:06:59;16.43;;;14.40;;
32826;SDS011;51059;42.058;27.986;2024-02-26T05:09:25;16.87;;;13.90;;
32826;SDS011;51059;42.058;27.986;2024-02-26T05:11:51;16.43;;;13.27;;
32826;SDS011;51059;42.058;27.986;2024-02-26T05:14:17;16.23;;;14.07;;
32826;SDS011;51059;42.058;27.986;2024-02-26T05:16:43;18.23;;;13.60;;
32826;SDS011;51059;42.058;27.986;2024-02-26T05:19:09;19.13;;;13.57;;
32826;SDS011;51059;42.058;27.986;2024-02-26T05:21:35;18.10;;;14.20;;
32826;SDS011;51059;42.058;27.986;2024-02-26T05:24:00;18.13;;;16.20;;
32826;SDS011;51059;42.058;27.986;2024-02-26T05:26:26;24.17;;;16.47;;
32826;SDS011;51059;42.058;27.986;2024-02-26T05:28:52;19.63;;;17.03;;
32826;SDS011;51059;42.058;27.986;2024-02-26T05:31:18;18.37;;;15.03;;
32826;SDS011;51059;42.058;27.986;2024-02-26T05:33:44;16.50;;;14.77;;
32826;SDS011;51059;42.058;27.986;2024-02-26T05:36:10;20.60;;;16.43;;
32826;SDS011;51059;42.058;27.986;2024-02-26T05:38:36;20.83;;;17.37;;
32826;SDS011;51059;42.058;27.986;2024-02-26T05:41:01;19.37;;;16.40;;
32826;SDS011;51059;42.058;27.986;2024-02-26T05:43:28;20.70;;;16.63;;
32826;SDS011;51059;42.058;27.986;2024-02-26T05:45:55;20.17;;;17.27;;
32826;SDS011;51059;42.058;27.986;2024-02-26T05:48:21;21.60;;;17.80;;
32826;SDS011;51059;42.058;27.986;2024-02-26T05:50:47;22.47;;;18.57;;
32826;SDS011;51059;42.058;27.986;2024-02-26T05:53:13;20.53;;;18.40;;
32826;SDS011;51059;42.058;27.986;2024-02-26T05:55:39;22.67;;;20.00;;
32826;SDS011;51059;42.058;27.986;2024-02-26T05:58:05;21.07;;;17.70;;
32826;SDS011;51059;42.058;27.986;2024-02-26T06:00:31;21.67;;;16.60;;
32826;SDS011;51059;42.058;27.986;2024-02-26T06:02:59;20.47;;;15.57;;
32826;SDS011;51059;42.058;27.986;2024-02-26T06:05:26;20.23;;;16.90;;
32826;SDS011;51059;42.058;27.986;2024-02-26T06:07:53;21.33;;;16.30;;
32826;SDS011;51059;42.058;27.986;2024-02-26T06:10:20;18.33;;;15.70;;
32826;SDS011;51059;42.058;27.986;2024-02-26T06:12:48;16.80;;;15.00;;
32826;SDS011;51059;42.058;27.986;2024-02-26T06:15:14;18.10;;;15.13;;
32826;SDS011;51059;42.058;27.986;2024-02-26T06:17:39;18.60;;;16.43;;
32826;SDS011;51059;42.058;27.986;2024-02-26T06:20:06;20.13;;;17.10;;
32826;SDS011;51059;42.058;27.986;2024-02-26T06:22:40;24.07;;;18.50;;
32826;SDS011;51059;42.058;27.986;2024-02-26T06:25:07;18.63;;;16.40;;
32826;SDS011;51059;42.058;27.986;2024-02-26T06:27:33;17.03;;;12.67;;
32826;SDS011;51059;42.058;27.986;2024-02-26T06:30:00;17.50;;;12.43;;
32826;SDS011;51059;42.058;27.986;2024-02-26T06:32:26;18.23;;;13.93;;
32826;SDS011;51059;42.058;27.986;2024-02-26T06:34:54;15.63;;;14.00;;
32826;SDS011;51059;42.058;27.986;2024-02-26T06:37:20;15.23;;;13.63;;
32826;SDS011;51059;42.058;27.986;2024-02-26T06:39:48;17.57;;;12.43;;
32826;SDS011;51059;42.058;27.986;2024-02-26T06:42:14;13.77;;;12.27;;
32826;SDS011;51059;42.058;27.986;2024-02-26T06:44:40;16.07;;;12.37;;
32826;SDS011;51059;42.058;27.986;2024-02-26T06:47:07;18.13;;;13.87;;
32826;SDS011;51059;42.058;27.986;2024-02-26T06:49:33;17.03;;;14.27;;
32826;SDS011;51059;42.058;27.986;2024-02-26T06:51:58;14.93;;;13.33;;
32826;SDS011;51059;42.058;27.986;2024-02-26T06:54:25;17.37;;;13.30;;
32826;SDS011;51059;42.058;27.986;2024-02-26T06:56:51;18.37;;;13.23;;
32826;SDS011;51059;42.058;27.986;2024-02-26T06:59:17;15.27;;;13.60;;
32826;SDS011;51059;42.058;27.986;2024-02-26T07:01:45;17.17;;;12.23;;
32826;SDS011;51059;42.058;27.986;2024-02-26T07:04:11;13.10;;;11.63;;
32826;SDS011;51059;42.058;27.986;2024-02-26T07:06:38;13.87;;;11.60;;
32826;SDS011;51059;42.058;27.986;2024-02-26T07:09:03;15.13;;;12.03;;
32826;SDS011;51059;42.058;27.986;2024-02-26T07:11:29;17.60;;;12.33;;
32826;SDS011;51059;42.058;27.986;2024-02-26T07:13:55;15.70;;;12.77;;
32826;SDS011;51059;42.058;27.986;2024-02-26T07:16:21;16.13;;;12.03;;
32826;SDS011;51059;42.058;27.986;2024-02-26T07:18:47;17.33;;;13.23;;
32826;SDS011;51059;42.058;27.986;2024-02-26T07:21:13;17.43;;;13.10;;
32826;SDS011;51059;42.058;27.986;2024-02-26T07:23:39;19.77;;;12.60;;
32826;SDS011;51059;42.058;27.986;2024-02-26T07:26:05;16.27;;;12.00;;
32826;SDS011;51059;42.058;27.986;2024-02-26T07:28:31;20.53;;;11.60;;
32826;SDS011;51059;42.058;27.986;2024-02-26T07:30:57;17.13;;;12.63;;
32826;SDS011;51059;42.058;27.986;2024-02-26T07:33:23;21.47;;;13.50;;
32826;SDS011;51059;42.058;27.986;2024-02-26T07:35:49;20.10;;;15.07;;
32826;SDS011;51059;42.058;27.986;2024-02-26T07:38:15;23.90;;;16.93;;
32826;SDS011;51059;42.058;27.986;2024-02-26T07:40:40;24.97;;;18.60;;
32826;SDS011;51059;42.058;27.986;2024-02-26T07:43:07;29.13;;;19.70;;
32826;SDS011;51059;42.058;27.986;2024-02-26T07:45:34;26.03;;;19.30;;
32826;SDS011;51059;42.058;27.986;2024-02-26T07:48:01;25.70;;;18.60;;
32826;SDS011;51059;42.058;27.986;2024-02-26T07:50:28;24.40;;;18.20;;
32826;SDS011;51059;42.058;27.986;2024-02-26T07:52:54;24.20;;;17.97;;
32826;SDS011;51059;42.058;27.986;2024-02-26T07:55:20;29.03;;;18.93;;
32826;SDS011;51059;42.058;27.986;2024-02-26T07:57:46;28.00;;;18.73;;
32826;SDS011;51059;42.058;27.986;2024-02-26T08:00:11;24.40;;;17.30;;
32826;SDS011;51059;42.058;27.986;2024-02-26T08:02:42;22.07;;;16.17;;
32826;SDS011;51059;42.058;27.986;2024-02-26T08:05:09;20.13;;;14.87;;
32826;SDS011;51059;42.058;27.986;2024-02-26T08:07:35;17.83;;;13.37;;
32826;SDS011;51059;42.058;27.986;2024-02-26T08:10:01;23.67;;;12.67;;
32826;SDS011;51059;42.058;27.986;2024-02-26T08:12:27;23.90;;;12.97;;
32826;SDS011;51059;42.058;27.986;2024-02-26T08:14:53;23.43;;;13.33;;
32826;SDS011;51059;42.058;27.986;2024-02-26T08:17:19;23.30;;;13.67;;
32826;SDS011;51059;42.058;27.986;2024-02-26T08:19:45;24.53;;;13.23;;
32826;SDS011;51059;42.058;27.986;2024-02-26T08:22:11;23.67;;;12.83;;
32826;SDS011;51059;42.058;27.986;2024-02-26T08:24:41;35.23;;;13.73;;
32826;SDS011;51059;42.058;27.986;2024-02-26T08:27:14;26.60;;;13.13;;
32826;SDS011;51059;42.058;27.986;2024-02-26T08:29:39;26.10;;;13.23;;
32826;SDS011;51059;42.058;27.986;2024-02-26T08:32:06;21.43;;;12.03;;
32826;SDS011;51059;42.058;27.986;2024-02-26T08:34:32;27.00;;;12.90;;
32826;SDS011;51059;42.058;27.986;2024-02-26T08:36:58;33.77;;;13.73;;
32826;SDS011;51059;42.058;27.986;2024-02-26T08:39:24;37.53;;;13.13;;
32826;SDS011;51059;42.058;27.986;2024-02-26T08:41:51;43.00;;;14.30;;
32826;SDS011;51059;42.058;27.986;2024-02-26T08:44:17;34.07;;;14.77;;
32826;SDS011;51059;42.058;27.986;2024-02-26T08:46:43;24.17;;;11.20;;
32826;SDS011;51059;42.058;27.986;2024-02-26T08:49:10;26.00;;;13.17;;
32826;SDS011;51059;42.058;27.986;2024-02-26T08:51:41;23.43;;;12.80;;
32826;SDS011;51059;42.058;27.986;2024-02-26T08:54:08;32.33;;;12.43;;
32826;SDS011;51059;42.058;27.986;2024-02-26T08:56:34;29.60;;;18.17;;
32826;SDS011;51059;42.058;27.986;2024-02-26T08:59:01;27.17;;;12.87;;
32826;SDS011;51059;42.058;27.986;2024-02-26T09:01:29;27.53;;;14.87;;
32826;SDS011;51059;42.058;27.986;2024-02-26T09:03:56;27.60;;;12.97;;
32826;SDS011;51059;42.058;27.986;2024-02-26T09:06:22;45.10;;;29.30;;
32826;SDS011;51059;42.058;27.986;2024-02-26T09:08:48;33.03;;;19.80;;
32826;SDS011;51059;42.058;27.986;2024-02-26T09:11:13;32.67;;;14.47;;
32826;SDS011;51059;42.058;27.986;2024-02-26T09:13:39;30.83;;;13.73;;
32826;SDS011;51059;42.058;27.986;2024-02-26T09:16:06;24.03;;;13.07;;
32826;SDS011;51059;42.058;27.986;2024-02-26T09:18:31;23.40;;;12.87;;
32826;SDS011;51059;42.058;27.986;2024-02-26T09:20:57;25.10;;;13.13;;
32826;SDS011;51059;42.058;27.986;2024-02-26T09:23:23;24.37;;;12.57;;
32826;SDS011;51059;42.058;27.986;2024-02-26T09:25:50;24.23;;;12.93;;
32826;SDS011;51059;42.058;27.986;2024-02-26T09:28:16;23.50;;;13.60;;
32826;SDS011;51059;42.058;27.986;2024-02-26T09:30:43;24.57;;;13.67;;
32826;SDS011;51059;42.058;27.986;2024-02-26T09:33:09;26.23;;;13.40;;
32826;SDS011;51059;42.058;27.986;2024-02-26T09:35:36;29.40;;;12.97;;
32826;SDS011;51059;42.058;27.986;2024-02-26T09:38:02;30.53;;;13.60;;
32826;SDS011;51059;42.058;27.986;2024-02-26T09:40:28;25.33;;;12.27;;
32826;SDS011;51059;42.058;27.986;2024-02-26T09:42:57;23.97;;;12.43;;
32826;SDS011;51059;42.058;27.986;2024-02-26T09:45:25;24.93;;;13.30;;
32826;SDS011;51059;42.058;27.986;2024-02-26T09:47:53;25.27;;;12.73;;
32826;SDS011;51059;42.058;27.986;2024-02-26T09:50:21;24.63;;;13.37;;
32826;SDS011;51059;42.058;27.986;2024-02-26T09:52:49;28.57;;;13.47;;
32826;SDS011;51059;42.058;27.986;2024-02-26T09:55:16;24.83;;;13.60;;
32826;SDS011;51059;42.058;27.986;2024-02-26T09:57:44;27.10;;;12.90;;
32826;SDS011;51059;42.058;27.986;2024-02-26T10:00:14;23.80;;;12.90;;
32826;SDS011;51059;42.058;27.986;2024-02-26T10:02:45;25.97;;;12.63;;
32826;SDS011;51059;42.058;27.986;2024-02-26T10:05:18;24.33;;;12.20;;
32826;SDS011;51059;42.058;27.986;2024-02-26T10:07:45;24.40;;;12.57;;
32826;SDS011;51059;42.058;27.986;2024-02-26T10:10:11;26.00;;;12.50;;
32826;SDS011;51059;42.058;27.986;2024-02-26T10:12:41;24.43;;;12.00;;
32826;SDS011;51059;42.058;27.986;2024-02-26T10:15:07;23.37;;;12.73;;
32826;SDS011;51059;42.058;27.986;2024-02-26T10:17:34;30.33;;;14.23;;
32826;SDS011;51059;42.058;27.986;2024-02-26T10:20:16;26.07;;;13.03;;
32826;SDS011;51059;42.058;27.986;2024-02-26T10:22:49;31.47;;;12.43;;
32826;SDS011;51059;42.058;27.986;2024-02-26T10:25:16;26.27;;;12.10;;
32826;SDS011;51059;42.058;27.986;2024-02-26T10:27:45;24.13;;;12.30;;
32826;SDS011;51059;42.058;27.986;2024-02-26T10:30:21;23.83;;;11.67;;
32826;SDS011;51059;42.058;27.986;2024-02-26T10:32:51;27.10;;;12.70;;
32826;SDS011;51059;42.058;27.986;2024-02-26T10:35:18;29.13;;;13.43;;
32826;SDS011;51059;42.058;27.986;2024-02-26T10:37:48;28.30;;;12.97;;
32826;SDS011;51059;42.058;27.986;2024-02-26T10:40:15;25.33;;;11.93;;
32826;SDS011;51059;42.058;27.986;2024-02-26T10:42:41;29.30;;;12.33;;
32826;SDS011;51059;42.058;27.986;2024-02-26T10:45:08;24.23;;;11.17;;
32826;SDS011;51059;42.058;27.986;2024-02-26T10:47:35;24.50;;;11.67;;
32826;SDS011;51059;42.058;27.986;2024-02-26T10:50:02;20.93;;;11.20;;
32826;SDS011;51059;42.058;27.986;2024-02-26T10:52:33;21.57;;;11.23;;
32826;SDS011;51059;42.058;27.986;2024-02-26T10:55:01;26.33;;;11.50;;
32826;SDS011;51059;42.058;27.986;2024-02-26T10:57:31;22.73;;;11.00;;
32826;SDS011;51059;42.058;27.986;2024-02-26T11:00:02;22.70;;;10.13;;
32826;SDS011;51059;42.058;27.986;2024-02-26T11:02:33;23.17;;;10.00;;
32826;SDS011;51059;42.058;27.986;2024-02-26T11:05:02;23.30;;;9.93;;
32826;SDS011;51059;42.058;27.986;2024-02-26T11:07:29;19.87;;;9.77;;
32826;SDS011;51059;42.058;27.986;2024-02-26T11:09:59;21.93;;;10.50;;
32826;SDS011;51059;42.058;27.986;2024-02-26T11:12:25;22.90;;;9.63;;
32826;SDS011;51059;42.058;27.986;2024-02-26T11:14:59;23.20;;;10.23;;
32826;SDS011;51059;42.058;27.986;2024-02-26T11:17:27;20.70;;;9.60;;
32826;SDS011;51059;42.058;27.986;2024-02-26T11:19:57;26.30;;;9.77;;
32826;SDS011;51059;42.058;27.986;2024-02-26T11:22:24;25.73;;;10.07;;
32826;SDS011;51059;42.058;27.986;2024-02-26T11:24:55;17.87;;;8.97;;
32826;SDS011;51059;42.058;27.986;2024-02-26T11:27:39;22.47;;;9.70;;
32826;SDS011;51059;42.058;27.986;2024-02-26T11:30:09;19.77;;;9.80;;
32826;SDS011;51059;42.058;27.986;2024-02-26T11:32:36;25.47;;;9.23;;
32826;SDS011;51059;42.058;27.986;2024-02-26T11:35:04;24.40;;;10.13;;
32826;SDS011;51059;42.058;27.986;2024-02-26T11:37:31;22.77;;;9.63;;
32826;SDS011;51059;42.058;27.986;2024-02-26T11:39:58;24.83;;;9.93;;
32826;SDS011;51059;42.058;27.986;2024-02-26T11:42:25;22.27;;;9.33;;
32826;SDS011;51059;42.058;27.986;2024-02-26T11:44:51;24.47;;;9.53;;
32826;SDS011;51059;42.058;27.986;2024-02-26T11:47:21;24.33;;;9.53;;
32826;SDS011;51059;42.058;27.986;2024-02-26T11:49:48;22.63;;;9.70;;
32826;SDS011;51059;42.058;27.986;2024-02-26T11:52:15;19.90;;;8.77;;
32826;SDS011;51059;42.058;27.986;2024-02-26T11:59:50;21.87;;;9.90;;
32826;SDS011;51059;42.058;27.986;2024-02-26T12:07:45;17.43;;;8.63;;
32826;SDS011;51059;42.058;27.986;2024-02-26T12:10:14;27.27;;;9.27;;
32826;SDS011;51059;42.058;27.986;2024-02-26T12:13:12;24.60;;;9.83;;
32826;SDS011;51059;42.058;27.986;2024-02-26T12:15:38;25.73;;;9.40;;
32826;SDS011;51059;42.058;27.986;2024-02-26T12:18:06;25.50;;;9.17;;
32826;SDS011;51059;42.058;27.986;2024-02-26T12:20:35;25.23;;;9.77;;
32826;SDS011;51059;42.058;27.986;2024-02-26T12:23:01;22.63;;;9.50;;
32826;SDS011;51059;42.058;27.986;2024-02-26T12:25:29;26.60;;;9.57;;
32826;SDS011;51059;42.058;27.986;2024-02-26T12:27:57;27.30;;;9.23;;
32826;SDS011;51059;42.058;27.986;2024-02-26T12:30:23;22.10;;;9.80;;
32826;SDS011;51059;42.058;27.986;2024-02-26T12:32:54;27.27;;;10.33;;
32826;SDS011;51059;42.058;27.986;2024-02-26T12:35:27;19.50;;;9.03;;
32826;SDS011;51059;42.058;27.986;2024-02-26T12:37:56;27.07;;;10.10;;
32826;SDS011;51059;42.058;27.986;2024-02-26T12:40:23;24.67;;;9.60;;
32826;SDS011;51059;42.058;27.986;2024-02-26T12:42:49;28.03;;;10.37;;
32826;SDS011;51059;42.058;27.986;2024-02-26T12:45:16;21.87;;;9.53;;
32826;SDS011;51059;42.058;27.986;2024-02-26T12:47:45;24.73;;;10.00;;
32826;SDS011;51059;42.058;27.986;2024-02-26T12:50:12;21.57;;;9.20;;
32826;SDS011;51059;42.058;27.986;2024-02-26T12:52:40;31.97;;;10.90;;
32826;SDS011;51059;42.058;27.986;2024-02-26T12:55:10;22.27;;;9.70;;
32826;SDS011;51059;42.058;27.986;2024-02-26T12:57:39;22.27;;;10.03;;
32826;SDS011;51059;42.058;27.986;2024-02-26T13:00:08;24.33;;;10.13;;
32826;SDS011;51059;42.058;27.986;2024-02-26T13:02:38;27.97;;;10.47;;
32826;SDS011;51059;42.058;27.986;2024-02-26T13:05:05;27.50;;;10.50;;
32826;SDS011;51059;42.058;27.986;2024-02-26T13:07:33;25.83;;;9.37;;
32826;SDS011;51059;42.058;27.986;2024-02-26T13:10:01;26.10;;;10.60;;
32826;SDS011;51059;42.058;27.986;2024-02-26T13:12:26;27.80;;;9.67;;
32826;SDS011;51059;42.058;27.986;2024-02-26T13:14:59;24.33;;;10.10;;
32826;SDS011;51059;42.058;27.986;2024-02-26T13:17:31;26.00;;;10.07;;
32826;SDS011;51059;42.058;27.986;2024-02-26T13:20:00;25.50;;;9.63;;
32826;SDS011;51059;42.058;27.986;2024-02-26T13:22:26;29.77;;;10.37;;
32826;SDS011;51059;42.058;27.986;2024-02-26T13:24:55;27.43;;;10.30;;
32826;SDS011;51059;42.058;27.986;2024-02-26T13:27:23;24.63;;;10.37;;
32826;SDS011;51059;42.058;27.986;2024-02-26T13:30:01;27.57;;;9.70;;
32826;SDS011;51059;42.058;27.986;2024-02-26T13:32:33;29.37;;;10.90;;
32826;SDS011;51059;42.058;27.986;2024-02-26T13:35:05;24.57;;;9.87;;
32826;SDS011;51059;42.058;27.986;2024-02-26T13:37:38;22.87;;;9.57;;
32826;SDS011;51059;42.058;27.986;2024-02-26T13:40:07;26.17;;;9.93;;
32826;SDS011;51059;42.058;27.986;2024-02-26T13:42:34;25.80;;;9.77;;
32826;SDS011;51059;42.058;27.986;2024-02-26T13:45:02;24.83;;;10.17;;
32826;SDS011;51059;42.058;27.986;2024-02-26T13:47:32;27.73;;;9.97;;
32826;SDS011;51059;42.058;27.986;2024-02-26T13:50:00;25.23;;;9.73;;
32826;SDS011;51059;42.058;27.986;2024-02-26T13:52:29;27.03;;;9.57;;
32826;SDS011;51059;42.058;27.986;2024-02-26T13:54:57;25.47;;;10.17;;
32826;SDS011;51059;42.058;27.986;2024-02-26T13:57:24;31.70;;;10.63;;
32826;SDS011;51059;42.058;27.986;2024-02-26T13:59:50;25.10;;;9.67;;
32826;SDS011;51059;42.058;27.986;2024-02-26T14:02:17;27.93;;;10.93;;
32826;SDS011;51059;42.058;27.986;2024-02-26T14:04:43;22.50;;;9.87;;
32826;SDS011;51059;42.058;27.986;2024-02-26T14:07:10;20.77;;;8.93;;
32826;SDS011;51059;42.058;27.986;2024-02-26T14:09:38;20.10;;;9.03;;
32826;SDS011;51059;42.058;27.986;2024-02-26T14:12:04;24.27;;;9.23;;
32826;SDS011;51059;42.058;27.986;2024-02-26T14:14:30;24.43;;;9.90;;
32826;SDS011;51059;42.058;27.986;2024-02-26T14:16:59;22.63;;;9.70;;
32826;SDS011;51059;42.058;27.986;2024-02-26T14:19:26;24.60;;;9.20;;
32826;SDS011;51059;42.058;27.986;2024-02-26T14:21:52;26.07;;;9.70;;